Time;durP1;ratioP1;P1;durP2;ratioP2;P2;SDS_P1;SDS_P2;PMS_P1;PMS_P2;Temp;Humidity;BMP_temperature;BMP_pressure;BME280_temperature;BME280_humidity;BME280_pressure;Samples;Min_cycle;Max_cycle;Signal;HPM_P1;HPM_P2
2023/04/17 00:00:02;;;;;;;2.33;1.30;;;;;;;;;;10559316;27;20035;-76
2023/04/17 00:05:05;;;;;;;2.13;1.10;;;;;;;;;;10553062;27;20131;-78
2023/04/17 00:10:11;;;;;;;2.10;0.88;;;;;;;;;;10530065;27;20475;-76
2023/04/17 00:15:13;;;;;;;0.40;0.38;;;;;;;;;;10554943;27;20032;-75
2023/04/17 00:20:26;;;;;;;2.88;1.42;;;;;;;;;;10551739;27;20088;-76
2023/04/17 00:25:31;;;;;;;2.63;1.20;;;;;;;;;;10560426;27;20424;-74
2023/04/17 00:30:34;;;;;;;1.90;1.27;;;;;;;;;;10549293;27;20089;-78
2023/04/17 00:35:36;;;;;;;0.85;0.45;;;;;;;;;;10549304;28;20088;-77
2023/04/17 00:40:40;;;;;;;2.30;1.30;;;;;;;;;;10546837;27;20039;-78
2023/04/17 00:45:46;;;;;;;0.70;0.57;;;;;;;;;;10558687;27;20086;-76
2023/04/17 00:50:48;;;;;;;0.60;0.50;;;;;;;;;;10553270;27;20044;-76
2023/04/17 00:55:52;;;;;;;0.75;0.43;;;;;;;;;;10553749;27;20480;-77
2023/04/17 01:00:55;;;;;;;2.92;1.17;;;;;;;;;;10570562;27;20055;-76
2023/04/17 01:05:58;;;;;;;3.17;1.50;;;;;;;;;;10539346;27;20562;-74
2023/04/17 01:11:05;;;;;;;0.80;0.50;;;;;;;;;;10553391;27;20036;-76
2023/04/17 01:16:08;;;;;;;2.38;1.20;;;;;;;;;;10544370;27;20043;-75
2023/04/17 01:21:10;;;;;;;5.65;1.33;;;;;;;;;;10566246;27;20109;-76
2023/04/17 01:26:18;;;;;;;3.17;1.52;;;;;;;;;;10567472;27;20524;-73
2023/04/17 01:31:22;;;;;;;3.08;1.27;;;;;;;;;;10577736;27;20452;-74
2023/04/17 01:36:28;;;;;;;2.83;1.60;;;;;;;;;;10588544;27;20070;-75
2023/04/17 01:41:33;;;;;;;3.15;1.15;;;;;;;;;;10587945;27;20419;-75
2023/04/17 01:46:35;;;;;;;2.05;1.13;;;;;;;;;;10582677;27;20122;-76
2023/04/17 01:51:38;;;;;;;3.60;1.80;;;;;;;;;;10577685;27;20248;-74
2023/04/17 01:56:42;;;;;;;4.20;1.88;;;;;;;;;;10577574;27;20055;-75
2023/04/17 02:01:45;;;;;;;4.18;1.85;;;;;;;;;;10546815;27;20046;-75
2023/04/17 02:06:48;;;;;;;4.60;2.07;;;;;;;;;;10539906;27;20445;-75
2023/04/17 02:11:52;;;;;;;3.95;2.03;;;;;;;;;;10542359;27;20032;-75
2023/04/17 02:16:55;;;;;;;6.25;2.72;;;;;;;;;;10553495;27;20069;-75
2023/04/17 02:21:58;;;;;;;7.13;3.10;;;;;;;;;;10558068;27;20043;-76
2023/04/17 02:27:03;;;;;;;6.30;2.97;;;;;;;;;;10560902;27;20113;-75
2023/04/17 02:32:06;;;;;;;6.13;2.47;;;;;;;;;;10554205;27;20213;-75
2023/04/17 02:37:09;;;;;;;9.48;3.88;;;;;;;;;;10553989;27;20123;-75
2023/04/17 02:42:14;;;;;;;8.43;3.60;;;;;;;;;;10577659;27;20035;-75
2023/04/17 02:47:16;;;;;;;7.40;2.92;;;;;;;;;;10561564;28;20338;-74
2023/04/17 02:52:19;;;;;;;8.00;2.95;;;;;;;;;;10555323;28;20074;-75
2023/04/17 02:57:24;;;;;;;7.63;3.43;;;;;;;;;;10554940;28;20036;-75
2023/04/17 03:02:27;;;;;;;9.80;3.67;;;;;;;;;;10579830;27;20067;-76
2023/04/17 03:07:29;;;;;;;9.52;4.10;;;;;;;;;;10574820;27;20163;-76
2023/04/17 03:12:33;;;;;;;3.58;1.70;;;;;;;;;;10571546;27;20043;-77
2023/04/17 03:17:36;;;;;;;8.82;3.80;;;;;;;;;;10569195;27;20050;-75
2023/04/17 03:22:39;;;;;;;12.98;4.68;;;;;;;;;;10581235;27;20541;-74
2023/04/17 03:27:44;;;;;;;14.30;5.43;;;;;;;;;;10596820;27;20044;-73
2023/04/17 03:32:47;;;;;;;;;;;;;;;;;;10582650;27;20090;-74
2023/04/17 03:37:50;;;;;;;12.57;5.00;;;;;;;;;;10562722;27;19984;-74
2023/04/17 03:42:54;;;;;;;9.65;4.05;;;;;;;;;;10565635;27;20040;-74
2023/04/17 03:47:57;;;;;;;;;;;;;;;;;;10553750;27;20031;-74
2023/04/17 03:53:00;;;;;;;18.40;6.63;;;;;;;;;;10552262;27;19964;-74
2023/04/17 03:58:05;;;;;;;15.15;6.35;;;;;;;;;;10551805;27;20044;-75
2023/04/17 04:03:08;;;;;;;15.95;6.10;;;;;;;;;;10555249;27;20508;-74
2023/04/17 04:08:11;;;;;;;16.70;6.33;;;;;;;;;;10554806;27;20068;-74
2023/04/17 04:13:16;;;;;;;17.20;7.18;;;;;;;;;;10563253;27;20118;-75
2023/04/17 04:18:18;;;;;;;18.70;6.65;;;;;;;;;;10570082;27;20043;-77
2023/04/17 04:23:23;;;;;;;21.48;7.45;;;;;;;;;;10538003;27;20048;-78
2023/04/17 04:28:29;;;;;;;18.23;7.40;;;;;;;;;;10553364;27;20067;-78
2023/04/17 04:33:31;;;;;;;18.65;6.97;;;;;;;;;;10555143;27;20047;-77
2023/04/17 04:38:34;;;;;;;21.98;7.88;;;;;;;;;;10564384;27;20044;-76
2023/04/17 04:43:39;;;;;;;24.67;8.23;;;;;;;;;;10552452;27;20075;-76
2023/04/17 04:48:42;;;;;;;18.20;5.45;;;;;;;;;;10553796;27;20048;-77
2023/04/17 04:53:46;;;;;;;22.85;7.60;;;;;;;;;;10553891;27;20039;-76
2023/04/17 04:58:50;;;;;;;10.43;4.68;;;;;;;;;;10550980;27;20120;-77
2023/04/17 05:03:53;;;;;;;16.55;6.35;;;;;;;;;;10527702;28;20038;-76
2023/04/17 05:08:57;;;;;;;20.70;7.65;;;;;;;;;;10546976;27;20032;-76
2023/04/17 05:14:02;;;;;;;17.65;5.32;;;;;;;;;;10558007;27;20282;-75
2023/04/17 05:19:05;;;;;;;;;;;;;;;;;;10549818;27;20047;-76
2023/04/17 05:24:07;;;;;;;21.67;9.32;;;;;;;;;;10534786;27;20399;-77
2023/04/17 05:29:23;;;;;;;17.77;6.28;;;;;;;;;;10551847;27;20032;-77
2023/04/17 05:34:26;;;;;;;16.00;6.45;;;;;;;;;;10548424;27;20044;-77
2023/04/17 05:39:28;;;;;;;21.10;7.78;;;;;;;;;;10559582;27;20036;-77
2023/04/17 05:44:33;;;;;;;22.65;8.23;;;;;;;;;;10565714;27;20051;-76
2023/04/17 05:49:36;;;;;;;22.27;7.88;;;;;;;;;;10541591;27;20484;-76
2023/04/17 05:54:40;;;;;;;21.10;7.57;;;;;;;;;;10546148;27;20093;-77
2023/04/17 05:59:49;;;;;;;19.23;7.88;;;;;;;;;;10551504;27;20054;-76
2023/04/17 06:04:52;;;;;;;20.50;7.60;;;;;;;;;;10533790;27;20404;-76
2023/04/17 06:10:07;;;;;;;18.63;6.90;;;;;;;;;;10543526;27;20039;-77
2023/04/17 06:15:12;;;;;;;22.67;7.60;;;;;;;;;;10557519;27;20504;-76
2023/04/17 06:20:24;;;;;;;23.13;8.68;;;;;;;;;;10556342;27;20028;-77
2023/04/17 06:25:28;;;;;;;23.30;8.00;;;;;;;;;;10564524;27;20036;-78
2023/04/17 06:30:32;;;;;;;27.02;8.32;;;;;;;;;;10547397;27;20115;-75
2023/04/17 06:35:36;;;;;;;23.98;7.93;;;;;;;;;;10545650;28;20131;-77
2023/04/17 06:40:39;;;;;;;26.17;10.57;;;;;;;;;;10563267;27;20446;-75
2023/04/17 06:45:44;;;;;;;25.27;8.10;;;;;;;;;;10546331;28;20119;-76
2023/04/17 06:50:47;;;;;;;24.33;8.43;;;;;;;;;;10556795;28;20070;-76
2023/04/17 06:55:50;;;;;;;23.20;8.02;;;;;;;;;;10546641;28;20121;-75
2023/04/17 07:00:55;;;;;;;21.13;7.78;;;;;;;;;;10558860;28;20059;-76
2023/04/17 07:05:58;;;;;;;18.58;6.68;;;;;;;;;;10560370;28;20580;-76
2023/04/17 07:11:06;;;;;;;15.20;4.82;;;;;;;;;;10577414;28;20036;-76
2023/04/17 07:16:11;;;;;;;15.52;4.40;;;;;;;;;;10595278;28;20163;-76
2023/04/17 07:21:13;;;;;;;14.25;5.25;;;;;;;;;;10589228;28;20027;-77
2023/04/17 07:26:16;;;;;;;16.50;5.13;;;;;;;;;;10589421;28;20050;-74
2023/04/17 07:31:21;;;;;;;15.57;5.70;;;;;;;;;;10587533;28;20047;-74
2023/04/17 07:36:25;;;;;;;17.52;6.38;;;;;;;;;;10588836;28;20055;-74
2023/04/17 07:41:29;;;;;;;23.88;8.10;;;;;;;;;;10575207;28;20045;-76
2023/04/17 07:46:33;;;;;;;19.70;7.00;;;;;;;;;;10570393;27;20047;-77
2023/04/17 07:51:39;;;;;;;22.85;8.00;;;;;;;;;;10568498;27;20079;-78
2023/04/17 07:56:45;;;;;;;17.63;6.15;;;;;;;;;;10554743;27;20488;-74
2023/04/17 08:01:51;;;;;;;18.02;6.40;;;;;;;;;;10558740;27;20445;-76
2023/04/17 08:06:54;;;;;;;17.35;6.25;;;;;;;;;;10556777;27;20051;-76
2023/04/17 08:11:57;;;;;;;15.68;6.18;;;;;;;;;;10568832;27;20032;-77
2023/04/17 08:17:06;;;;;;;17.70;7.38;;;;;;;;;;10554541;27;20051;-75
2023/04/17 08:22:09;;;;;;;16.48;6.93;;;;;;;;;;10553574;27;20114;-76
2023/04/17 08:27:13;;;;;;;17.70;7.43;;;;;;;;;;10556353;27;20142;-76
2023/04/17 08:32:17;;;;;;;17.88;7.75;;;;;;;;;;10548348;27;20061;-75
2023/04/17 08:37:20;;;;;;;22.45;9.25;;;;;;;;;;10558089;27;20052;-76
2023/04/17 08:42:23;;;;;;;18.90;8.13;;;;;;;;;;10552201;27;21856;-75
2023/04/17 08:47:28;;;;;;;19.70;7.97;;;;;;;;;;10545965;27;20047;-76
2023/04/17 08:52:31;;;;;;;18.05;8.27;;;;;;;;;;10564975;27;20027;-77
2023/04/17 08:57:35;;;;;;;23.10;8.90;;;;;;;;;;10551644;27;20031;-76
2023/04/17 09:02:55;;;;;;;21.17;9.23;;;;;;;;;;10560859;27;20050;-76
2023/04/17 09:08:12;;;;;;;20.45;8.38;;;;;;;;;;10575656;27;20049;-76
2023/04/17 09:13:16;;;;;;;19.10;8.23;;;;;;;;;;10555417;27;20130;-76
2023/04/17 09:18:24;;;;;;;17.45;8.85;;;;;;;;;;10570425;27;21062;-75
2023/04/17 09:23:30;;;;;;;18.73;9.02;;;;;;;;;;10572339;27;20050;-77
2023/04/17 09:28:34;;;;;;;13.63;7.20;;;;;;;;;;10563695;27;20131;-77
2023/04/17 09:33:55;;;;;;;18.35;8.55;;;;;;;;;;10541027;28;20491;-77
2023/04/17 09:38:59;;;;;;;16.60;8.90;;;;;;;;;;10561560;27;20059;-77
2023/04/17 09:44:04;;;;;;;15.88;7.65;;;;;;;;;;10564622;27;20074;-76
2023/04/17 09:49:10;;;;;;;15.30;7.53;;;;;;;;;;10558611;27;20097;-77
2023/04/17 09:54:15;;;;;;;14.07;7.95;;;;;;;;;;10562069;27;20458;-75
2023/04/17 09:59:19;;;;;;;16.45;8.45;;;;;;;;;;10574513;27;20098;-77
2023/04/17 10:04:25;;;;;;;15.98;7.65;;;;;;;;;;10554765;27;20059;-76
2023/04/17 10:09:29;;;;;;;19.13;9.82;;;;;;;;;;10543025;28;20043;-76
2023/04/17 10:14:35;;;;;;;16.55;8.10;;;;;;;;;;10551488;28;20403;-77
2023/04/17 10:19:39;;;;;;;21.08;9.02;;;;;;;;;;10553023;27;20067;-76
2023/04/17 10:24:41;;;;;;;20.10;8.75;;;;;;;;;;10556054;28;20044;-76
2023/04/17 10:29:51;;;;;;;13.60;7.53;;;;;;;;;;10556519;28;20518;-76
2023/04/17 10:34:57;;;;;;;14.20;7.57;;;;;;;;;;10559008;27;20559;-76
2023/04/17 10:40:01;;;;;;;15.20;8.00;;;;;;;;;;10545485;28;20122;-76
2023/04/17 10:45:17;;;;;;;16.73;8.27;;;;;;;;;;10529023;28;20093;-77
2023/04/17 10:50:29;;;;;;;20.63;10.68;;;;;;;;;;10554939;28;20477;-76
2023/04/17 10:55:32;;;;;;;13.55;7.82;;;;;;;;;;10538404;28;20225;-76
2023/04/17 11:00:36;;;;;;;17.03;7.37;;;;;;;;;;10544124;28;20062;-76
2023/04/17 11:05:44;;;;;;;14.20;8.80;;;;;;;;;;10555075;28;20044;-76
2023/04/17 11:10:46;;;;;;;15.25;8.00;;;;;;;;;;10546258;28;20043;-77
2023/04/17 11:15:50;;;;;;;14.77;8.80;;;;;;;;;;10553019;28;20044;-77
2023/04/17 11:20:54;;;;;;;19.20;9.05;;;;;;;;;;10557380;27;20039;-77
2023/04/17 11:25:57;;;;;;;17.30;8.82;;;;;;;;;;10567682;27;20043;-76
2023/04/17 11:31:00;;;;;;;15.07;8.00;;;;;;;;;;10561741;27;20212;-76
2023/04/17 11:36:06;;;;;;;15.68;8.20;;;;;;;;;;10558232;27;20047;-76
2023/04/17 11:41:09;;;;;;;15.07;8.02;;;;;;;;;;10560592;27;20028;-76
2023/04/17 11:46:12;;;;;;;15.82;8.57;;;;;;;;;;10561203;27;20031;-76
2023/04/17 11:51:17;;;;;;;10.33;4.53;;;;;;;;;;10565517;27;20048;-77
2023/04/17 11:56:21;;;;;;;16.02;8.45;;;;;;;;;;10559918;27;20048;-76
2023/04/17 12:01:25;;;;;;;18.80;10.23;;;;;;;;;;10561983;27;20051;-75
2023/04/17 12:06:36;;;;;;;16.02;9.55;;;;;;;;;;10559862;27;20527;-78
2023/04/17 12:11:39;;;;;;;14.88;8.77;;;;;;;;;;10562707;27;20067;-76
2023/04/17 12:16:43;;;;;;;13.32;7.95;;;;;;;;;;10566168;27;20040;-79
2023/04/17 12:21:46;;;;;;;;;;;;;;;;;;10584169;27;20044;-76
2023/04/17 12:26:51;;;;;;;15.18;7.72;;;;;;;;;;10578387;27;19927;-74
2023/04/17 12:31:55;;;;;;;17.35;9.27;;;;;;;;;;10574322;28;20047;-75
2023/04/17 12:36:58;;;;;;;14.00;7.75;;;;;;;;;;10578344;27;20036;-74
2023/04/17 12:42:02;;;;;;;9.73;5.57;;;;;;;;;;10571512;27;20038;-77
2023/04/17 12:47:04;;;;;;;14.75;8.20;;;;;;;;;;10561148;27;20039;-77
2023/04/17 12:52:08;;;;;;;14.20;7.93;;;;;;;;;;10573244;27;20067;-77
2023/04/17 12:57:12;;;;;;;14.30;7.90;;;;;;;;;;10566392;27;20040;-76
2023/04/17 13:02:16;;;;;;;12.85;8.13;;;;;;;;;;10573250;27;20076;-76
2023/04/17 13:07:19;;;;;;;;;;;;;;;;;;10561535;27;20054;-76
2023/04/17 13:12:24;;;;;;;12.05;5.88;;;;;;;;;;10561477;27;19992;-78
2023/04/17 13:17:27;;;;;;;15.65;10.50;;;;;;;;;;10551116;27;20431;-76
2023/04/17 13:22:30;;;;;;;;;;;;;;;;;;10569957;27;20472;-76
2023/04/17 13:27:34;;;;;;;11.43;6.28;;;;;;;;;;10561559;27;19920;-76
2023/04/17 13:32:39;;;;;;;13.15;6.97;;;;;;;;;;10558922;27;20123;-76
2023/04/17 13:37:42;;;;;;;16.77;7.72;;;;;;;;;;10565548;27;20036;-78
2023/04/17 13:42:46;;;;;;;10.00;6.47;;;;;;;;;;10566767;27;20041;-76
2023/04/17 13:47:49;;;;;;;11.75;6.35;;;;;;;;;;10548471;27;20050;-76
2023/04/17 13:52:53;;;;;;;11.95;6.93;;;;;;;;;;10544597;28;20088;-77
2023/04/17 13:57:58;;;;;;;11.30;6.47;;;;;;;;;;10530006;28;20035;-78
2023/04/17 14:03:01;;;;;;;12.30;6.43;;;;;;;;;;10548185;27;20130;-77
2023/04/17 14:08:04;;;;;;;10.90;6.10;;;;;;;;;;10552103;27;20078;-78
2023/04/17 14:13:08;;;;;;;11.80;6.10;;;;;;;;;;10528810;27;20040;-76
2023/04/17 14:18:12;;;;;;;8.00;4.70;;;;;;;;;;10543388;27;20085;-75
2023/04/17 14:23:14;;;;;;;9.47;5.00;;;;;;;;;;10565181;27;20031;-76
2023/04/17 14:28:19;;;;;;;4.10;2.60;;;;;;;;;;10575977;27;20238;-76
2023/04/17 14:33:23;;;;;;;4.95;3.03;;;;;;;;;;10546530;28;20040;-75
2023/04/17 14:38:26;;;;;;;9.30;5.35;;;;;;;;;;10560084;27;20047;-76
2023/04/17 14:43:31;;;;;;;11.30;5.68;;;;;;;;;;10549025;27;20104;-75
2023/04/17 14:48:35;;;;;;;10.45;5.30;;;;;;;;;;10571744;27;20092;-75
2023/04/17 14:53:56;;;;;;;11.57;4.97;;;;;;;;;;10567996;27;20101;-78
2023/04/17 14:59:07;;;;;;;11.80;5.07;;;;;;;;;;10557210;27;20085;-77
2023/04/17 15:04:10;;;;;;;9.35;4.95;;;;;;;;;;10570661;27;20081;-77
2023/04/17 15:09:13;;;;;;;10.32;4.85;;;;;;;;;;10575073;27;20418;-79
2023/04/17 15:14:19;;;;;;;4.47;3.05;;;;;;;;;;10560429;27;20047;-76
2023/04/17 15:19:21;;;;;;;4.85;2.75;;;;;;;;;;10560357;27;20052;-77
2023/04/17 15:24:24;;;;;;;4.55;2.88;;;;;;;;;;10564601;27;20047;-76
2023/04/17 15:29:29;;;;;;;3.08;1.83;;;;;;;;;;10562114;27;20040;-76
2023/04/17 15:34:41;;;;;;;5.90;2.90;;;;;;;;;;10568011;27;20036;-76
2023/04/17 15:39:45;;;;;;;10.00;4.68;;;;;;;;;;10561724;27;20044;-77
2023/04/17 15:44:49;;;;;;;5.70;3.60;;;;;;;;;;10566456;27;20419;-76
2023/04/17 15:49:55;;;;;;;8.02;3.50;;;;;;;;;;10549308;27;20036;-77
2023/04/17 15:54:58;;;;;;;4.75;2.72;;;;;;;;;;10563496;27;20115;-77
2023/04/17 16:00:02;;;;;;;5.53;3.25;;;;;;;;;;10557579;27;20040;-77
2023/04/17 16:05:05;;;;;;;7.20;3.00;;;;;;;;;;10564013;27;20342;-77
2023/04/17 16:10:12;;;;;;;6.00;3.13;;;;;;;;;;10544844;27;20139;-77
2023/04/17 16:15:20;;;;;;;5.90;2.63;;;;;;;;;;10568921;27;20036;-76
2023/04/17 16:20:24;;;;;;;4.80;3.03;;;;;;;;;;10581606;27;20050;-76
2023/04/17 16:25:27;;;;;;;5.20;3.28;;;;;;;;;;10550889;28;20043;-77
2023/04/17 16:30:31;;;;;;;5.93;3.40;;;;;;;;;;10567950;27;20074;-76
2023/04/17 16:35:35;;;;;;;6.13;3.90;;;;;;;;;;10568998;27;20036;-77
2023/04/17 16:40:37;;;;;;;7.18;4.00;;;;;;;;;;10554809;27;20047;-76
2023/04/17 16:45:41;;;;;;;9.13;5.20;;;;;;;;;;10560300;27;20550;-76
2023/04/17 16:50:45;;;;;;;7.72;4.35;;;;;;;;;;10566029;27;20047;-77
2023/04/17 16:55:48;;;;;;;5.95;3.60;;;;;;;;;;10552149;27;20109;-76
2023/04/17 17:00:52;;;;;;;6.80;3.47;;;;;;;;;;10563413;27;20040;-74
2023/04/17 17:05:56;;;;;;;6.22;3.35;;;;;;;;;;10553366;27;20047;-75
2023/04/17 17:11:02;;;;;;;5.93;3.60;;;;;;;;;;10573228;27;20044;-77
2023/04/17 17:16:06;;;;;;;5.45;3.40;;;;;;;;;;10559039;27;20035;-77
2023/04/17 17:21:10;;;;;;;6.78;4.13;;;;;;;;;;10563136;27;20042;-76
2023/04/17 17:26:13;;;;;;;8.52;4.78;;;;;;;;;;10584217;27;20031;-77
2023/04/17 17:31:18;;;;;;;13.13;5.97;;;;;;;;;;10579722;27;20044;-75
2023/04/17 17:36:21;;;;;;;10.05;4.70;;;;;;;;;;10593460;27;20050;-76
2023/04/17 17:41:26;;;;;;;7.60;4.32;;;;;;;;;;10603107;27;20063;-76
2023/04/17 17:46:32;;;;;;;6.97;4.17;;;;;;;;;;10604108;27;20103;-75
2023/04/17 17:51:36;;;;;;;8.13;4.30;;;;;;;;;;10589808;27;20040;-76
2023/04/17 17:56:38;;;;;;;8.32;4.47;;;;;;;;;;10571960;27;20119;-75
2023/04/17 18:01:42;;;;;;;9.88;4.50;;;;;;;;;;10558539;27;20044;-76
2023/04/17 18:06:46;;;;;;;7.82;4.65;;;;;;;;;;10564817;27;20172;-76
2023/04/17 18:11:49;;;;;;;7.75;4.20;;;;;;;;;;10548877;28;20050;-76
2023/04/17 18:16:53;;;;;;;9.35;4.55;;;;;;;;;;10548639;27;20587;-76
2023/04/17 18:21:56;;;;;;;8.38;4.28;;;;;;;;;;10561459;27;20043;-77
2023/04/17 18:27:01;;;;;;;6.28;3.67;;;;;;;;;;10558405;27;20515;-78
2023/04/17 18:32:05;;;;;;;13.52;5.50;;;;;;;;;;10547956;28;20040;-78
2023/04/17 18:37:08;;;;;;;8.55;4.45;;;;;;;;;;10550999;27;20120;-76
2023/04/17 18:42:10;;;;;;;8.88;4.55;;;;;;;;;;10535076;28;20384;-75
2023/04/17 18:47:15;;;;;;;8.15;4.43;;;;;;;;;;10557125;27;20047;-78
2023/04/17 18:52:18;;;;;;;13.82;6.57;;;;;;;;;;10564710;28;20040;-76
2023/04/17 18:57:21;;;;;;;10.30;5.57;;;;;;;;;;10552911;28;20138;-75
2023/04/17 19:02:25;;;;;;;11.15;5.75;;;;;;;;;;10554169;28;20055;-77
2023/04/17 19:07:35;;;;;;;12.43;5.93;;;;;;;;;;10564724;28;20154;-77
2023/04/17 19:12:38;;;;;;;13.00;6.85;;;;;;;;;;10550337;28;20283;-76
2023/04/17 19:17:42;;;;;;;12.60;6.47;;;;;;;;;;10554755;28;20452;-77
2023/04/17 19:22:45;;;;;;;12.05;6.70;;;;;;;;;;10543613;28;20040;-76
2023/04/17 19:27:48;;;;;;;19.63;8.35;;;;;;;;;;10554526;28;20064;-76
2023/04/17 19:32:53;;;;;;;13.02;6.68;;;;;;;;;;10543540;28;20523;-77
2023/04/17 19:37:56;;;;;;;13.98;6.80;;;;;;;;;;10562379;28;20126;-77
2023/04/17 19:43:00;;;;;;;;;;;;;;;;;;10589894;27;20032;-76
2023/04/17 19:48:04;;;;;;;14.80;6.72;;;;;;;;;;10576965;27;19977;-77
2023/04/17 19:53:08;;;;;;;15.75;7.38;;;;;;;;;;10555125;27;20148;-79
2023/04/17 19:58:11;;;;;;;15.43;7.70;;;;;;;;;;10554588;27;20082;-78
2023/04/17 20:03:16;;;;;;;15.57;7.35;;;;;;;;;;10544347;28;20060;-78
2023/04/17 20:08:18;;;;;;;15.73;6.68;;;;;;;;;;10556441;27;20046;-76
2023/04/17 20:13:22;;;;;;;18.53;9.00;;;;;;;;;;10566103;27;20040;-75
2023/04/17 20:18:27;;;;;;;16.52;7.80;;;;;;;;;;10553027;28;20044;-77
2023/04/17 20:23:30;;;;;;;16.35;8.02;;;;;;;;;;10550446;27;20051;-76
2023/04/17 20:28:34;;;;;;;15.82;7.75;;;;;;;;;;10549253;27;20536;-76
2023/04/17 20:33:38;;;;;;;16.58;7.82;;;;;;;;;;10560808;27;20032;-84
2023/04/17 20:38:41;;;;;;;;;;;;;;;;;;10568362;27;20154;-82
2023/04/17 20:43:44;;;;;;;16.63;7.90;;;;;;;;;;10553727;27;20014;-76
2023/04/17 20:48:49;;;;;;;14.55;7.30;;;;;;;;;;10570112;27;20047;-76
2023/04/17 20:53:52;;;;;;;19.10;8.45;;;;;;;;;;10553972;28;20047;-75
2023/04/17 20:58:54;;;;;;;18.35;8.80;;;;;;;;;;10551947;27;20050;-76
2023/04/17 21:03:59;;;;;;;20.60;10.00;;;;;;;;;;10550685;27;20046;-77
2023/04/17 21:09:05;;;;;;;17.83;8.75;;;;;;;;;;10573167;27;20104;-78
2023/04/17 21:14:07;;;;;;;15.20;7.77;;;;;;;;;;10545116;28;20496;-76
2023/04/17 21:19:11;;;;;;;15.35;7.53;;;;;;;;;;10559098;27;20043;-77
2023/04/17 21:24:14;;;;;;;17.17;6.80;;;;;;;;;;10569941;27;20065;-75
2023/04/17 21:29:17;;;;;;;16.30;8.15;;;;;;;;;;10563768;27;20032;-77
2023/04/17 21:34:21;;;;;;;16.73;7.90;;;;;;;;;;10556659;27;20066;-76
2023/04/17 21:39:24;;;;;;;13.70;7.82;;;;;;;;;;10554246;27;20040;-76
2023/04/17 21:44:28;;;;;;;15.50;6.82;;;;;;;;;;10556373;27;20047;-76
2023/04/17 21:49:35;;;;;;;11.88;6.63;;;;;;;;;;10567245;27;20071;-76
2023/04/17 21:54:37;;;;;;;15.32;6.20;;;;;;;;;;10573060;27;20040;-75
2023/04/17 21:59:41;;;;;;;14.13;7.20;;;;;;;;;;10593597;27;20035;-77
2023/04/17 22:04:45;;;;;;;14.50;5.90;;;;;;;;;;10590010;28;20031;-78
2023/04/17 22:09:48;;;;;;;13.07;6.45;;;;;;;;;;10561636;27;20139;-78
2023/04/17 22:14:51;;;;;;;11.45;5.63;;;;;;;;;;10545365;28;20032;-77
2023/04/17 22:20:03;;;;;;;11.45;5.38;;;;;;;;;;10555321;27;20074;-78
2023/04/17 22:25:06;;;;;;;12.73;4.88;;;;;;;;;;10540530;27;20035;-76
2023/04/17 22:30:10;;;;;;;9.77;4.85;;;;;;;;;;10542121;27;20059;-76
2023/04/17 22:35:15;;;;;;;9.85;4.57;;;;;;;;;;10540098;27;20276;-77
2023/04/17 22:40:17;;;;;;;9.63;4.53;;;;;;;;;;10547493;27;20039;-77
2023/04/17 22:45:20;;;;;;;10.35;5.53;;;;;;;;;;10528890;28;20046;-76
2023/04/17 22:50:24;;;;;;;9.32;4.68;;;;;;;;;;10548235;27;20063;-76
2023/04/17 22:55:27;;;;;;;14.27;5.05;;;;;;;;;;10549574;28;20070;-76
2023/04/17 23:00:31;;;;;;;11.43;5.07;;;;;;;;;;10552439;28;20052;-77
2023/04/17 23:05:36;;;;;;;10.40;5.47;;;;;;;;;;10555166;28;20322;-77
2023/04/17 23:10:38;;;;;;;11.10;5.50;;;;;;;;;;10554575;28;20046;-76
2023/04/17 23:15:41;;;;;;;11.98;5.25;;;;;;;;;;10566603;27;20047;-76
2023/04/17 23:20:46;;;;;;;10.77;5.38;;;;;;;;;;10574759;27;20484;-76
2023/04/17 23:25:49;;;;;;;10.25;4.90;;;;;;;;;;10576297;27;20577;-75
2023/04/17 23:30:53;;;;;;;13.32;6.35;;;;;;;;;;10596045;27;20061;-75
2023/04/17 23:35:57;;;;;;;11.90;5.47;;;;;;;;;;10579287;27;20032;-77
2023/04/17 23:41:00;;;;;;;13.55;6.13;;;;;;;;;;10557908;27;20424;-76
2023/04/17 23:46:03;;;;;;;13.98;6.30;;;;;;;;;;10550497;27;20039;-76
2023/04/17 23:51:08;;;;;;;15.73;5.87;;;;;;;;;;10559533;27;20119;-76
2023/04/17 23:56:12;;;;;;;14.10;6.15;;;;;;;;;;10550292;27;20587;-76
